sensor_id;sensor_type;location;lat;lon;timestamp;temperature;humidity
47540;DHT22;33280;52.152;21.052;2023-02-28T00:01:08;-1.20;99.90
47540;DHT22;33280;52.152;21.052;2023-02-28T00:03:35;-1.10;99.90
47540;DHT22;33280;52.152;21.052;2023-02-28T00:06:04;-1.10;99.90
47540;DHT22;33280;52.152;21.052;2023-02-28T00:08:31;-1.10;99.90
47540;DHT22;33280;52.152;21.052;2023-02-28T00:11:02;-1.20;99.90
47540;DHT22;33280;52.152;21.052;2023-02-28T00:13:29;-1.30;99.90
47540;DHT22;33280;52.152;21.052;2023-02-28T00:16:05;-1.30;99.90
47540;DHT22;33280;52.152;21.052;2023-02-28T00:18:33;-1.40;99.90
47540;DHT22;33280;52.152;21.052;2023-02-28T00:21:00;-1.30;99.90
47540;DHT22;33280;52.152;21.052;2023-02-28T00:23:29;-1.30;99.90
47540;DHT22;33280;52.152;21.052;2023-02-28T00:25:56;-1.30;99.90
47540;DHT22;33280;52.152;21.052;2023-02-28T00:28:23;-1.30;99.90
47540;DHT22;33280;52.152;21.052;2023-02-28T00:30:50;-1.40;99.90
47540;DHT22;33280;52.152;21.052;2023-02-28T00:33:17;-1.50;99.90
47540;DHT22;33280;52.152;21.052;2023-02-28T00:35:43;-1.50;99.90
47540;DHT22;33280;52.152;21.052;2023-02-28T00:38:13;-1.60;99.90
47540;DHT22;33280;52.152;21.052;2023-02-28T00:40:40;-1.60;99.90
47540;DHT22;33280;52.152;21.052;2023-02-28T00:43:07;-1.60;99.90
47540;DHT22;33280;52.152;21.052;2023-02-28T00:45:34;-1.50;99.90
47540;DHT22;33280;52.152;21.052;2023-02-28T00:48:01;-1.50;99.90
47540;DHT22;33280;52.152;21.052;2023-02-28T00:50:28;-1.50;99.90
47540;DHT22;33280;52.152;21.052;2023-02-28T00:52:55;-1.40;99.90
47540;DHT22;33280;52.152;21.052;2023-02-28T00:55:22;-1.50;99.90
47540;DHT22;33280;52.152;21.052;2023-02-28T00:57:49;-1.50;99.90
47540;DHT22;33280;52.152;21.052;2023-02-28T01:00:16;-1.50;99.90
47540;DHT22;33280;52.152;21.052;2023-02-28T01:02:43;-1.60;99.90
47540;DHT22;33280;52.152;21.052;2023-02-28T01:05:09;-1.70;99.90
47540;DHT22;33280;52.152;21.052;2023-02-28T01:07:36;-1.70;99.90
47540;DHT22;33280;52.152;21.052;2023-02-28T01:10:03;-1.80;99.90
47540;DHT22;33280;52.152;21.052;2023-02-28T01:12:30;-1.80;99.90
47540;DHT22;33280;52.152;21.052;2023-02-28T01:14:57;-1.80;99.90
47540;DHT22;33280;52.152;21.052;2023-02-28T01:17:24;-1.80;99.90
47540;DHT22;33280;52.152;21.052;2023-02-28T01:19:54;-1.70;99.90
47540;DHT22;33280;52.152;21.052;2023-02-28T01:22:22;-1.60;99.90
47540;DHT22;33280;52.152;21.052;2023-02-28T01:24:49;-1.70;99.90
47540;DHT22;33280;52.152;21.052;2023-02-28T01:27:15;-1.60;99.90
47540;DHT22;33280;52.152;21.052;2023-02-28T01:29:42;-1.60;99.90
47540;DHT22;33280;52.152;21.052;2023-02-28T01:32:09;-1.60;99.90
47540;DHT22;33280;52.152;21.052;2023-02-28T01:34:36;-1.60;99.90
47540;DHT22;33280;52.152;21.052;2023-02-28T01:37:03;-1.60;99.90
47540;DHT22;33280;52.152;21.052;2023-02-28T01:39:30;-1.50;99.90
47540;DHT22;33280;52.152;21.052;2023-02-28T01:41:57;-1.50;99.90
47540;DHT22;33280;52.152;21.052;2023-02-28T01:47:32;-1.50;99.90
47540;DHT22;33280;52.152;21.052;2023-02-28T01:50:03;-1.60;99.90
47540;DHT22;33280;52.152;21.052;2023-02-28T01:52:32;-1.60;99.90
47540;DHT22;33280;52.152;21.052;2023-02-28T01:55:01;-1.70;99.90
47540;DHT22;33280;52.152;21.052;2023-02-28T01:57:32;-1.70;99.90
47540;DHT22;33280;52.152;21.052;2023-02-28T02:00:08;-1.70;99.90
47540;DHT22;33280;52.152;21.052;2023-02-28T02:02:36;-1.60;99.90
47540;DHT22;33280;52.152;21.052;2023-02-28T02:05:07;-1.60;99.90
47540;DHT22;33280;52.152;21.052;2023-02-28T02:07:40;-1.60;99.90
47540;DHT22;33280;52.152;21.052;2023-02-28T02:10:12;-1.60;99.90
47540;DHT22;33280;52.152;21.052;2023-02-28T02:18:46;-1.80;99.90
47540;DHT22;33280;52.152;21.052;2023-02-28T02:35:43;-1.70;99.90
47540;DHT22;33280;52.152;21.052;2023-02-28T02:38:24;-1.80;99.90
47540;DHT22;33280;52.152;21.052;2023-02-28T02:41:13;-1.80;99.90
47540;DHT22;33280;52.152;21.052;2023-02-28T02:43:50;-1.80;99.90
47540;DHT22;33280;52.152;21.052;2023-02-28T02:46:21;-1.80;99.90
47540;DHT22;33280;52.152;21.052;2023-02-28T02:48:50;-1.80;99.90
47540;DHT22;33280;52.152;21.052;2023-02-28T02:51:19;-1.80;99.90
47540;DHT22;33280;52.152;21.052;2023-02-28T02:54:08;-1.80;99.90
47540;DHT22;33280;52.152;21.052;2023-02-28T02:56:39;-1.80;99.90
47540;DHT22;33280;52.152;21.052;2023-02-28T02:59:09;-1.70;99.90
47540;DHT22;33280;52.152;21.052;2023-02-28T03:01:38;-1.70;99.90
47540;DHT22;33280;52.152;21.052;2023-02-28T03:04:13;-1.60;99.90
47540;DHT22;33280;52.152;21.052;2023-02-28T03:06:42;-1.60;99.90
47540;DHT22;33280;52.152;21.052;2023-02-28T03:09:09;-1.50;99.90
47540;DHT22;33280;52.152;21.052;2023-02-28T03:11:38;-1.60;99.90
47540;DHT22;33280;52.152;21.052;2023-02-28T03:17:27;-1.40;99.90
47540;DHT22;33280;52.152;21.052;2023-02-28T03:20:27;-1.50;99.90
47540;DHT22;33280;52.152;21.052;2023-02-28T03:23:07;-1.60;99.90
47540;DHT22;33280;52.152;21.052;2023-02-28T03:25:44;-1.60;99.90
47540;DHT22;33280;52.152;21.052;2023-02-28T03:28:41;-1.70;99.90
47540;DHT22;33280;52.152;21.052;2023-02-28T03:34:11;-1.70;99.90
47540;DHT22;33280;52.152;21.052;2023-02-28T03:36:42;-1.50;99.90
47540;DHT22;33280;52.152;21.052;2023-02-28T03:39:30;-1.50;99.90
47540;DHT22;33280;52.152;21.052;2023-02-28T03:42:01;-1.50;99.90
47540;DHT22;33280;52.152;21.052;2023-02-28T03:44:35;-1.50;99.90
47540;DHT22;33280;52.152;21.052;2023-02-28T03:49:46;-1.60;99.90
47540;DHT22;33280;52.152;21.052;2023-02-28T03:52:17;-1.60;99.90
47540;DHT22;33280;52.152;21.052;2023-02-28T03:54:52;-1.60;99.90
47540;DHT22;33280;52.152;21.052;2023-02-28T03:57:28;-1.60;99.90
47540;DHT22;33280;52.152;21.052;2023-02-28T04:00:08;-1.80;99.90
47540;DHT22;33280;52.152;21.052;2023-02-28T04:02:37;-1.80;99.90
47540;DHT22;33280;52.152;21.052;2023-02-28T04:05:04;-1.80;99.90
47540;DHT22;33280;52.152;21.052;2023-02-28T04:07:31;-1.90;99.90
47540;DHT22;33280;52.152;21.052;2023-02-28T04:09:58;-1.90;99.90
47540;DHT22;33280;52.152;21.052;2023-02-28T04:12:25;-2.00;99.90
47540;DHT22;33280;52.152;21.052;2023-02-28T04:14:52;-2.00;99.90
47540;DHT22;33280;52.152;21.052;2023-02-28T04:17:19;-2.00;99.90
47540;DHT22;33280;52.152;21.052;2023-02-28T04:19:46;-1.90;99.90
47540;DHT22;33280;52.152;21.052;2023-02-28T04:22:13;-1.90;99.90
47540;DHT22;33280;52.152;21.052;2023-02-28T04:24:40;-1.90;99.90
47540;DHT22;33280;52.152;21.052;2023-02-28T04:27:08;-2.00;99.90
47540;DHT22;33280;52.152;21.052;2023-02-28T04:29:35;-2.00;99.90
47540;DHT22;33280;52.152;21.052;2023-02-28T04:32:02;-2.00;99.90
47540;DHT22;33280;52.152;21.052;2023-02-28T04:34:36;-2.00;99.90
47540;DHT22;33280;52.152;21.052;2023-02-28T04:37:03;-2.00;99.90
47540;DHT22;33280;52.152;21.052;2023-02-28T04:39:40;-2.10;99.90
47540;DHT22;33280;52.152;21.052;2023-02-28T04:42:08;-2.10;99.90
47540;DHT22;33280;52.152;21.052;2023-02-28T04:44:35;-2.10;99.90
47540;DHT22;33280;52.152;21.052;2023-02-28T04:47:02;-2.00;99.90
47540;DHT22;33280;52.152;21.052;2023-02-28T04:49:29;-1.90;99.90
47540;DHT22;33280;52.152;21.052;2023-02-28T04:51:56;-2.00;99.90
47540;DHT22;33280;52.152;21.052;2023-02-28T04:54:24;-2.00;99.90
47540;DHT22;33280;52.152;21.052;2023-02-28T04:56:51;-2.00;99.90
47540;DHT22;33280;52.152;21.052;2023-02-28T04:59:18;-2.00;99.90
47540;DHT22;33280;52.152;21.052;2023-02-28T05:01:46;-2.00;99.90
47540;DHT22;33280;52.152;21.052;2023-02-28T05:04:14;-2.10;99.90
47540;DHT22;33280;52.152;21.052;2023-02-28T05:06:41;-2.10;99.90
47540;DHT22;33280;52.152;21.052;2023-02-28T05:09:09;-2.10;99.90
47540;DHT22;33280;52.152;21.052;2023-02-28T05:11:39;-2.20;99.90
47540;DHT22;33280;52.152;21.052;2023-02-28T05:14:11;-2.20;99.90
47540;DHT22;33280;52.152;21.052;2023-02-28T05:16:38;-2.30;99.90
47540;DHT22;33280;52.152;21.052;2023-02-28T05:19:06;-2.30;99.90
47540;DHT22;33280;52.152;21.052;2023-02-28T05:21:35;-2.30;99.90
47540;DHT22;33280;52.152;21.052;2023-02-28T05:24:06;-2.30;99.90
47540;DHT22;33280;52.152;21.052;2023-02-28T05:26:36;-2.40;99.90
47540;DHT22;33280;52.152;21.052;2023-02-28T05:29:04;-2.40;99.90
47540;DHT22;33280;52.152;21.052;2023-02-28T05:31:32;-2.40;99.90
47540;DHT22;33280;52.152;21.052;2023-02-28T05:33:59;-2.40;99.90
47540;DHT22;33280;52.152;21.052;2023-02-28T05:36:27;-2.30;99.90
47540;DHT22;33280;52.152;21.052;2023-02-28T05:38:54;-2.30;99.90
47540;DHT22;33280;52.152;21.052;2023-02-28T05:41:21;-2.30;99.90
47540;DHT22;33280;52.152;21.052;2023-02-28T05:43:48;-2.30;99.90
47540;DHT22;33280;52.152;21.052;2023-02-28T05:46:16;-2.30;99.90
47540;DHT22;33280;52.152;21.052;2023-02-28T05:48:46;-2.30;99.90
47540;DHT22;33280;52.152;21.052;2023-02-28T05:51:13;-2.40;99.90
47540;DHT22;33280;52.152;21.052;2023-02-28T05:53:40;-2.40;99.90
47540;DHT22;33280;52.152;21.052;2023-02-28T05:56:07;-2.20;99.90
47540;DHT22;33280;52.152;21.052;2023-02-28T05:58:34;-2.30;99.90
47540;DHT22;33280;52.152;21.052;2023-02-28T06:03:49;-2.20;99.90
47540;DHT22;33280;52.152;21.052;2023-02-28T06:06:17;-2.20;99.90
47540;DHT22;33280;52.152;21.052;2023-02-28T06:08:44;-2.10;99.90
47540;DHT22;33280;52.152;21.052;2023-02-28T06:11:11;-2.00;99.90
47540;DHT22;33280;52.152;21.052;2023-02-28T06:13:38;-1.90;99.90
47540;DHT22;33280;52.152;21.052;2023-02-28T06:16:05;-1.80;99.90
47540;DHT22;33280;52.152;21.052;2023-02-28T06:18:33;-1.70;99.90
47540;DHT22;33280;52.152;21.052;2023-02-28T06:20:59;-1.70;99.90
47540;DHT22;33280;52.152;21.052;2023-02-28T06:23:26;-1.80;99.90
47540;DHT22;33280;52.152;21.052;2023-02-28T06:25:54;-1.70;99.90
47540;DHT22;33280;52.152;21.052;2023-02-28T06:28:25;-1.60;99.90
47540;DHT22;33280;52.152;21.052;2023-02-28T06:30:52;-1.50;99.90
47540;DHT22;33280;52.152;21.052;2023-02-28T06:33:19;-1.50;99.90
47540;DHT22;33280;52.152;21.052;2023-02-28T06:35:47;-1.40;99.90
47540;DHT22;33280;52.152;21.052;2023-02-28T06:38:14;-1.40;99.90
47540;DHT22;33280;52.152;21.052;2023-02-28T06:40:41;-1.30;99.90
47540;DHT22;33280;52.152;21.052;2023-02-28T06:43:08;-1.30;99.90
47540;DHT22;33280;52.152;21.052;2023-02-28T06:45:35;-1.30;99.90
47540;DHT22;33280;52.152;21.052;2023-02-28T06:48:02;-1.20;99.90
47540;DHT22;33280;52.152;21.052;2023-02-28T06:50:29;-1.30;99.90
47540;DHT22;33280;52.152;21.052;2023-02-28T06:52:57;-1.30;99.90
47540;DHT22;33280;52.152;21.052;2023-02-28T06:55:24;-1.20;99.90
47540;DHT22;33280;52.152;21.052;2023-02-28T06:57:51;-1.10;99.90
47540;DHT22;33280;52.152;21.052;2023-02-28T07:00:18;-1.10;99.90
47540;DHT22;33280;52.152;21.052;2023-02-28T07:02:45;-1.00;99.90
47540;DHT22;33280;52.152;21.052;2023-02-28T07:05:12;-1.00;99.90
47540;DHT22;33280;52.152;21.052;2023-02-28T07:07:39;-0.90;99.90
47540;DHT22;33280;52.152;21.052;2023-02-28T07:10:11;-0.80;99.90
47540;DHT22;33280;52.152;21.052;2023-02-28T07:12:38;-0.70;99.90
47540;DHT22;33280;52.152;21.052;2023-02-28T07:15:05;-0.60;99.90
47540;DHT22;33280;52.152;21.052;2023-02-28T07:17:32;-0.50;99.90
47540;DHT22;33280;52.152;21.052;2023-02-28T07:19:59;-0.40;99.90
47540;DHT22;33280;52.152;21.052;2023-02-28T07:22:26;-0.40;99.90
47540;DHT22;33280;52.152;21.052;2023-02-28T07:24:55;-0.30;99.90
47540;DHT22;33280;52.152;21.052;2023-02-28T07:27:22;-0.20;99.90
47540;DHT22;33280;52.152;21.052;2023-02-28T07:29:55;-0.30;99.90
47540;DHT22;33280;52.152;21.052;2023-02-28T07:32:22;-0.30;99.90
47540;DHT22;33280;52.152;21.052;2023-02-28T07:34:49;-0.20;99.90
47540;DHT22;33280;52.152;21.052;2023-02-28T07:37:16;-0.20;99.90
47540;DHT22;33280;52.152;21.052;2023-02-28T07:39:43;-0.10;99.90
47540;DHT22;33280;52.152;21.052;2023-02-28T07:42:10;0.00;99.90
47540;DHT22;33280;52.152;21.052;2023-02-28T07:44:39;0.00;99.90
47540;DHT22;33280;52.152;21.052;2023-02-28T07:47:08;0.10;99.90
47540;DHT22;33280;52.152;21.052;2023-02-28T07:49:36;0.20;99.90
47540;DHT22;33280;52.152;21.052;2023-02-28T07:52:04;0.20;99.90
47540;DHT22;33280;52.152;21.052;2023-02-28T07:54:32;0.00;99.90
47540;DHT22;33280;52.152;21.052;2023-02-28T07:56:59;0.00;99.90
47540;DHT22;33280;52.152;21.052;2023-02-28T07:59:26;0.10;99.90
47540;DHT22;33280;52.152;21.052;2023-02-28T08:01:53;0.20;99.90
47540;DHT22;33280;52.152;21.052;2023-02-28T08:04:20;0.40;99.90
47540;DHT22;33280;52.152;21.052;2023-02-28T08:06:47;0.40;99.90
47540;DHT22;33280;52.152;21.052;2023-02-28T08:09:14;0.50;99.90
47540;DHT22;33280;52.152;21.052;2023-02-28T08:11:41;0.50;99.90
47540;DHT22;33280;52.152;21.052;2023-02-28T08:14:20;0.50;99.90
47540;DHT22;33280;52.152;21.052;2023-02-28T08:16:47;0.60;99.90
47540;DHT22;33280;52.152;21.052;2023-02-28T08:19:13;1.20;99.90
47540;DHT22;33280;52.152;21.052;2023-02-28T08:21:40;2.00;99.90
47540;DHT22;33280;52.152;21.052;2023-02-28T08:24:07;2.90;99.90
47540;DHT22;33280;52.152;21.052;2023-02-28T08:26:34;3.60;99.90
47540;DHT22;33280;52.152;21.052;2023-02-28T08:29:01;3.90;99.90
47540;DHT22;33280;52.152;21.052;2023-02-28T08:31:28;4.20;99.90
47540;DHT22;33280;52.152;21.052;2023-02-28T08:33:55;4.30;99.90
47540;DHT22;33280;52.152;21.052;2023-02-28T08:36:25;4.10;99.90
47540;DHT22;33280;52.152;21.052;2023-02-28T08:38:56;4.50;99.90
47540;DHT22;33280;52.152;21.052;2023-02-28T08:41:22;4.40;99.90
47540;DHT22;33280;52.152;21.052;2023-02-28T08:43:49;4.30;99.90
47540;DHT22;33280;52.152;21.052;2023-02-28T08:46:16;4.70;99.90
47540;DHT22;33280;52.152;21.052;2023-02-28T08:48:44;5.00;99.90
47540;DHT22;33280;52.152;21.052;2023-02-28T08:51:16;5.20;99.90
47540;DHT22;33280;52.152;21.052;2023-02-28T08:53:45;5.10;99.90
47540;DHT22;33280;52.152;21.052;2023-02-28T08:56:14;5.20;99.90
47540;DHT22;33280;52.152;21.052;2023-02-28T08:58:41;5.30;99.90
47540;DHT22;33280;52.152;21.052;2023-02-28T09:01:10;5.30;99.90
47540;DHT22;33280;52.152;21.052;2023-02-28T09:03:38;5.10;99.30
47540;DHT22;33280;52.152;21.052;2023-02-28T09:06:05;5.00;99.30
47540;DHT22;33280;52.152;21.052;2023-02-28T09:08:32;5.20;98.80
47540;DHT22;33280;52.152;21.052;2023-02-28T09:10:59;5.30;98.30
47540;DHT22;33280;52.152;21.052;2023-02-28T09:13:29;5.50;97.60
47540;DHT22;33280;52.152;21.052;2023-02-28T09:16:01;5.80;96.10
47540;DHT22;33280;52.152;21.052;2023-02-28T09:18:28;5.50;95.10
47540;DHT22;33280;52.152;21.052;2023-02-28T09:20:56;5.60;95.70
47540;DHT22;33280;52.152;21.052;2023-02-28T09:23:24;5.90;95.40
47540;DHT22;33280;52.152;21.052;2023-02-28T09:25:53;6.50;94.40
47540;DHT22;33280;52.152;21.052;2023-02-28T09:28:21;6.80;93.00
47540;DHT22;33280;52.152;21.052;2023-02-28T09:30:50;7.00;91.70
47540;DHT22;33280;52.152;21.052;2023-02-28T09:33:18;7.10;90.10
47540;DHT22;33280;52.152;21.052;2023-02-28T09:35:57;6.90;89.20
47540;DHT22;33280;52.152;21.052;2023-02-28T09:38:25;6.80;90.00
47540;DHT22;33280;52.152;21.052;2023-02-28T09:40:58;6.60;88.90
47540;DHT22;33280;52.152;21.052;2023-02-28T09:43:33;6.80;90.40
47540;DHT22;33280;52.152;21.052;2023-02-28T09:48:39;7.60;91.10
47540;DHT22;33280;52.152;21.052;2023-02-28T09:54:02;8.40;85.90
47540;DHT22;33280;52.152;21.052;2023-02-28T09:56:40;8.60;84.20
47540;DHT22;33280;52.152;21.052;2023-02-28T09:59:25;9.00;90.60
47540;DHT22;33280;52.152;21.052;2023-02-28T10:04:56;8.50;90.50
47540;DHT22;33280;52.152;21.052;2023-02-28T10:10:15;8.20;91.50
47540;DHT22;33280;52.152;21.052;2023-02-28T10:12:47;8.40;90.40
47540;DHT22;33280;52.152;21.052;2023-02-28T10:15:15;8.30;91.90
47540;DHT22;33280;52.152;21.052;2023-02-28T10:17:47;8.70;91.60
47540;DHT22;33280;52.152;21.052;2023-02-28T10:20:37;8.90;86.90
47540;DHT22;33280;52.152;21.052;2023-02-28T10:26:10;8.90;78.40
47540;DHT22;33280;52.152;21.052;2023-02-28T10:28:39;8.70;79.80
47540;DHT22;33280;52.152;21.052;2023-02-28T10:31:11;8.80;86.60
47540;DHT22;33280;52.152;21.052;2023-02-28T10:33:41;9.30;91.30
47540;DHT22;33280;52.152;21.052;2023-02-28T10:36:12;9.60;77.70
47540;DHT22;33280;52.152;21.052;2023-02-28T10:38:44;9.10;80.10
47540;DHT22;33280;52.152;21.052;2023-02-28T10:41:35;9.00;79.10
47540;DHT22;33280;52.152;21.052;2023-02-28T10:44:20;8.40;76.40
47540;DHT22;33280;52.152;21.052;2023-02-28T10:46:48;8.60;82.20
47540;DHT22;33280;52.152;21.052;2023-02-28T10:49:26;8.50;79.40
47540;DHT22;33280;52.152;21.052;2023-02-28T10:51:59;8.40;81.00
47540;DHT22;33280;52.152;21.052;2023-02-28T10:54:30;8.60;81.50
47540;DHT22;33280;52.152;21.052;2023-02-28T10:59:42;9.10;79.70
47540;DHT22;33280;52.152;21.052;2023-02-28T11:02:36;9.20;78.10
47540;DHT22;33280;52.152;21.052;2023-02-28T11:05:29;9.20;78.70
47540;DHT22;33280;52.152;21.052;2023-02-28T11:08:17;10.20;83.90
47540;DHT22;33280;52.152;21.052;2023-02-28T11:10:47;10.70;80.40
47540;DHT22;33280;52.152;21.052;2023-02-28T11:13:20;11.30;77.70
47540;DHT22;33280;52.152;21.052;2023-02-28T11:15:55;11.00;70.90
47540;DHT22;33280;52.152;21.052;2023-02-28T11:18:41;11.10;71.70
47540;DHT22;33280;52.152;21.052;2023-02-28T11:21:16;11.40;76.00
47540;DHT22;33280;52.152;21.052;2023-02-28T11:23:45;11.90;74.10
47540;DHT22;33280;52.152;21.052;2023-02-28T11:26:39;12.20;68.30
47540;DHT22;33280;52.152;21.052;2023-02-28T11:29:18;12.20;64.10
47540;DHT22;33280;52.152;21.052;2023-02-28T11:32:12;11.40;65.00
47540;DHT22;33280;52.152;21.052;2023-02-28T11:34:41;11.20;66.40
47540;DHT22;33280;52.152;21.052;2023-02-28T11:37:15;11.30;66.30
47540;DHT22;33280;52.152;21.052;2023-02-28T11:39:43;11.40;65.60
47540;DHT22;33280;52.152;21.052;2023-02-28T11:45:15;10.90;67.50
47540;DHT22;33280;52.152;21.052;2023-02-28T11:47:48;11.60;66.60
47540;DHT22;33280;52.152;21.052;2023-02-28T11:53:01;13.00;63.40
47540;DHT22;33280;52.152;21.052;2023-02-28T11:55:42;12.90;59.40
47540;DHT22;33280;52.152;21.052;2023-02-28T12:07:00;13.50;57.60
47540;DHT22;33280;52.152;21.052;2023-02-28T12:12:29;14.60;57.10
47540;DHT22;33280;52.152;21.052;2023-02-28T12:15:17;15.20;55.10
47540;DHT22;33280;52.152;21.052;2023-02-28T12:23:52;15.40;54.50
47540;DHT22;33280;52.152;21.052;2023-02-28T12:29:29;15.00;54.50
47540;DHT22;33280;52.152;21.052;2023-02-28T12:32:13;15.10;53.30
47540;DHT22;33280;52.152;21.052;2023-02-28T12:34:48;15.50;52.60
47540;DHT22;33280;52.152;21.052;2023-02-28T12:37:37;15.70;53.30
47540;DHT22;33280;52.152;21.052;2023-02-28T12:40:11;15.20;52.50
47540;DHT22;33280;52.152;21.052;2023-02-28T12:42:42;14.60;51.90
47540;DHT22;33280;52.152;21.052;2023-02-28T12:47:48;15.50;52.70
47540;DHT22;33280;52.152;21.052;2023-02-28T12:50:17;15.10;52.20
47540;DHT22;33280;52.152;21.052;2023-02-28T12:52:55;15.00;52.90
47540;DHT22;33280;52.152;21.052;2023-02-28T12:56:12;13.80;53.50
47540;DHT22;33280;52.152;21.052;2023-02-28T12:58:44;13.80;54.60
47540;DHT22;33280;52.152;21.052;2023-02-28T13:09:55;15.10;51.80
47540;DHT22;33280;52.152;21.052;2023-02-28T13:12:26;14.20;52.90
47540;DHT22;33280;52.152;21.052;2023-02-28T13:17:40;13.20;53.60
47540;DHT22;33280;52.152;21.052;2023-02-28T13:20:25;13.90;54.70
47540;DHT22;33280;52.152;21.052;2023-02-28T13:22:53;13.70;53.10
47540;DHT22;33280;52.152;21.052;2023-02-28T13:27:52;13.50;53.50
47540;DHT22;33280;52.152;21.052;2023-02-28T13:36:26;12.70;54.40
47540;DHT22;33280;52.152;21.052;2023-02-28T13:39:01;12.50;55.10
47540;DHT22;33280;52.152;21.052;2023-02-28T13:41:42;11.90;54.90
47540;DHT22;33280;52.152;21.052;2023-02-28T13:44:13;11.50;56.10
47540;DHT22;33280;52.152;21.052;2023-02-28T13:47:20;11.20;57.30
47540;DHT22;33280;52.152;21.052;2023-02-28T13:49:49;10.70;57.00
47540;DHT22;33280;52.152;21.052;2023-02-28T13:52:22;10.60;58.80
47540;DHT22;33280;52.152;21.052;2023-02-28T14:06:34;9.70;61.90
47540;DHT22;33280;52.152;21.052;2023-02-28T14:09:24;9.60;62.70
47540;DHT22;33280;52.152;21.052;2023-02-28T14:11:55;9.30;62.60
47540;DHT22;33280;52.152;21.052;2023-02-28T14:17:24;8.70;64.10
47540;DHT22;33280;52.152;21.052;2023-02-28T14:20:00;8.50;64.80
47540;DHT22;33280;52.152;21.052;2023-02-28T14:26:02;8.10;66.20
47540;DHT22;33280;52.152;21.052;2023-02-28T14:29:01;8.00;68.80
47540;DHT22;33280;52.152;21.052;2023-02-28T14:35:13;8.00;67.30
47540;DHT22;33280;52.152;21.052;2023-02-28T14:38:15;7.90;68.90
47540;DHT22;33280;52.152;21.052;2023-02-28T14:40:45;7.90;68.50
47540;DHT22;33280;52.152;21.052;2023-02-28T14:43:22;8.10;68.80
47540;DHT22;33280;52.152;21.052;2023-02-28T14:45:52;8.20;68.40
47540;DHT22;33280;52.152;21.052;2023-02-28T14:48:21;7.70;68.70
47540;DHT22;33280;52.152;21.052;2023-02-28T14:50:58;7.50;69.90
47540;DHT22;33280;52.152;21.052;2023-02-28T14:53:37;7.10;71.60
47540;DHT22;33280;52.152;21.052;2023-02-28T14:56:05;6.70;73.30
47540;DHT22;33280;52.152;21.052;2023-02-28T14:58:33;6.30;75.70
47540;DHT22;33280;52.152;21.052;2023-02-28T15:01:02;5.80;79.00
47540;DHT22;33280;52.152;21.052;2023-02-28T15:03:38;5.60;82.00
47540;DHT22;33280;52.152;21.052;2023-02-28T15:06:25;5.50;84.80
47540;DHT22;33280;52.152;21.052;2023-02-28T15:09:17;5.00;88.90
47540;DHT22;33280;52.152;21.052;2023-02-28T15:11:49;5.20;91.60
47540;DHT22;33280;52.152;21.052;2023-02-28T15:14:19;5.00;90.80
47540;DHT22;33280;52.152;21.052;2023-02-28T15:16:56;5.00;92.00
47540;DHT22;33280;52.152;21.052;2023-02-28T15:19:33;5.00;92.10
47540;DHT22;33280;52.152;21.052;2023-02-28T15:22:06;4.60;92.30
47540;DHT22;33280;52.152;21.052;2023-02-28T15:24:48;4.60;93.80
47540;DHT22;33280;52.152;21.052;2023-02-28T15:27:25;4.50;94.40
47540;DHT22;33280;52.152;21.052;2023-02-28T15:29:58;4.50;95.30
47540;DHT22;33280;52.152;21.052;2023-02-28T15:32:33;4.40;95.00
47540;DHT22;33280;52.152;21.052;2023-02-28T15:35:37;4.30;96.00
47540;DHT22;33280;52.152;21.052;2023-02-28T15:38:16;4.30;96.50
47540;DHT22;33280;52.152;21.052;2023-02-28T15:40:53;4.00;96.60
47540;DHT22;33280;52.152;21.052;2023-02-28T15:43:34;3.90;97.50
47540;DHT22;33280;52.152;21.052;2023-02-28T15:46:03;3.80;98.60
47540;DHT22;33280;52.152;21.052;2023-02-28T15:48:34;3.70;99.40
47540;DHT22;33280;52.152;21.052;2023-02-28T15:51:35;3.70;99.90
47540;DHT22;33280;52.152;21.052;2023-02-28T15:54:07;3.60;99.90
47540;DHT22;33280;52.152;21.052;2023-02-28T15:56:43;3.40;99.90
47540;DHT22;33280;52.152;21.052;2023-02-28T15:59:19;3.40;99.90
47540;DHT22;33280;52.152;21.052;2023-02-28T16:01:46;3.30;99.90
47540;DHT22;33280;52.152;21.052;2023-02-28T16:06:42;3.10;99.90
47540;DHT22;33280;52.152;21.052;2023-02-28T16:09:14;3.10;99.90
47540;DHT22;33280;52.152;21.052;2023-02-28T16:11:49;2.80;99.90
47540;DHT22;33280;52.152;21.052;2023-02-28T16:14:25;2.90;99.90
47540;DHT22;33280;52.152;21.052;2023-02-28T16:16:57;2.80;99.90
47540;DHT22;33280;52.152;21.052;2023-02-28T16:19:28;2.90;99.90
47540;DHT22;33280;52.152;21.052;2023-02-28T16:21:55;2.80;99.90
47540;DHT22;33280;52.152;21.052;2023-02-28T16:24:22;2.80;99.90
47540;DHT22;33280;52.152;21.052;2023-02-28T16:26:51;2.70;99.90
47540;DHT22;33280;52.152;21.052;2023-02-28T16:29:24;2.70;99.90
47540;DHT22;33280;52.152;21.052;2023-02-28T16:31:53;2.60;99.90
47540;DHT22;33280;52.152;21.052;2023-02-28T16:34:20;2.70;99.90
47540;DHT22;33280;52.152;21.052;2023-02-28T16:36:48;2.60;99.90
47540;DHT22;33280;52.152;21.052;2023-02-28T16:39:15;2.60;99.90
47540;DHT22;33280;52.152;21.052;2023-02-28T16:41:44;2.50;99.90
47540;DHT22;33280;52.152;21.052;2023-02-28T16:44:21;2.40;99.90
47540;DHT22;33280;52.152;21.052;2023-02-28T16:46:50;2.30;99.90
47540;DHT22;33280;52.152;21.052;2023-02-28T16:49:23;2.20;99.90
47540;DHT22;33280;52.152;21.052;2023-02-28T16:51:54;2.10;99.90
47540;DHT22;33280;52.152;21.052;2023-02-28T16:54:21;2.10;99.90
47540;DHT22;33280;52.152;21.052;2023-02-28T16:56:49;2.10;99.90
47540;DHT22;33280;52.152;21.052;2023-02-28T16:59:21;2.10;99.90
47540;DHT22;33280;52.152;21.052;2023-02-28T17:01:49;2.10;99.90
47540;DHT22;33280;52.152;21.052;2023-02-28T17:04:16;2.00;99.90
47540;DHT22;33280;52.152;21.052;2023-02-28T17:06:43;1.90;99.90
47540;DHT22;33280;52.152;21.052;2023-02-28T17:09:19;1.80;99.90
47540;DHT22;33280;52.152;21.052;2023-02-28T17:11:50;1.80;99.90
47540;DHT22;33280;52.152;21.052;2023-02-28T17:14:16;1.50;99.90
47540;DHT22;33280;52.152;21.052;2023-02-28T17:16:43;1.40;99.90
47540;DHT22;33280;52.152;21.052;2023-02-28T17:19:15;1.40;99.90
47540;DHT22;33280;52.152;21.052;2023-02-28T17:21:42;1.30;99.90
47540;DHT22;33280;52.152;21.052;2023-02-28T17:24:09;1.30;99.90
47540;DHT22;33280;52.152;21.052;2023-02-28T17:26:44;1.30;99.90
47540;DHT22;33280;52.152;21.052;2023-02-28T17:29:17;1.20;99.90
47540;DHT22;33280;52.152;21.052;2023-02-28T17:31:44;1.10;99.90
47540;DHT22;33280;52.152;21.052;2023-02-28T17:34:11;1.20;99.90
47540;DHT22;33280;52.152;21.052;2023-02-28T17:36:48;1.30;99.90
47540;DHT22;33280;52.152;21.052;2023-02-28T17:39:17;1.40;99.90
47540;DHT22;33280;52.152;21.052;2023-02-28T17:41:51;1.20;99.90
47540;DHT22;33280;52.152;21.052;2023-02-28T17:44:19;1.20;99.90
47540;DHT22;33280;52.152;21.052;2023-02-28T17:46:46;1.20;99.90
47540;DHT22;33280;52.152;21.052;2023-02-28T17:49:13;1.20;99.90
47540;DHT22;33280;52.152;21.052;2023-02-28T17:51:40;1.10;99.90
47540;DHT22;33280;52.152;21.052;2023-02-28T17:54:07;1.10;99.90